createdAt,value
2019-04-20T00:02:25.467Z,26.80
2019-04-20T00:04:59.097Z,25.67
2019-04-20T00:07:34.370Z,32.37
2019-04-20T00:10:09.880Z,34.77
2019-04-20T00:12:51.993Z,34.80
2019-04-20T00:15:09.004Z,35.20
2019-04-20T00:17:45.895Z,32.50
2019-04-20T00:20:19.014Z,33.43
2019-04-20T00:23:03.775Z,33.17
2019-04-20T00:25:52.203Z,34.70
2019-04-20T00:28:34.084Z,31.63
2019-04-20T00:31:05.565Z,34.60
2019-04-20T00:33:32.219Z,33.33
2019-04-20T00:35:54.976Z,31.63
2019-04-20T00:38:27.134Z,28.37
2019-04-20T00:41:02.759Z,28.57
2019-04-20T00:43:34.262Z,27.70
2019-04-20T00:46:08.227Z,25.90
2019-04-20T00:48:46.226Z,26.13
2019-04-20T00:51:39.587Z,24.53
2019-04-20T00:53:47.915Z,23.53
2019-04-20T00:56:16.155Z,24.10
2019-04-20T00:58:58.025Z,27.53
2019-04-20T01:01:46.182Z,28.50
2019-04-20T01:04:16.281Z,29.07
2019-04-20T01:06:42.496Z,28.63
2019-04-20T01:09:01.314Z,29.80
2019-04-20T01:11:38.409Z,28.10
2019-04-20T01:14:09.384Z,24.37
2019-04-20T01:16:43.976Z,24.33
2019-04-20T01:19:10.258Z,21.30
2019-04-20T01:21:43.022Z,19.73
2019-04-20T01:24:20.155Z,20.20
2019-04-20T01:26:50.796Z,19.93
2019-04-20T01:29:29.618Z,19.57
2019-04-20T01:32:05.697Z,20.33
2019-04-20T01:34:39.310Z,22.63
2019-04-20T01:37:13.099Z,25.37
2019-04-20T01:39:37.053Z,23.63
2019-04-20T01:42:02.434Z,22.37
2019-04-20T01:44:41.177Z,20.43
2019-04-20T01:47:08.241Z,17.93
2019-04-20T01:49:40.258Z,17.63
2019-04-20T01:52:20.195Z,17.70
2019-04-20T01:55:04.836Z,17.07
2019-04-20T01:57:37.557Z,17.67
2019-04-20T02:00:11.475Z,20.07
2019-04-20T02:02:52.055Z,20.20
2019-04-20T02:05:24.770Z,17.60
2019-04-20T02:07:55.571Z,18.37
2019-04-20T02:10:37.059Z,17.97
2019-04-20T02:13:02.891Z,16.93
2019-04-20T02:15:39.970Z,15.37
2019-04-20T02:18:17.607Z,16.43
2019-04-20T02:20:54.660Z,17.23
2019-04-20T02:23:23.511Z,16.67
2019-04-20T02:25:43.917Z,16.07
2019-04-20T02:28:34.030Z,16.23
2019-04-20T02:31:23.386Z,18.90
2019-04-20T02:36:58.781Z,24.90
2019-04-20T02:39:34.954Z,25.37
2019-04-20T02:41:50.951Z,27.97
2019-04-20T02:44:24.166Z,27.67
2019-04-20T02:52:19.120Z,29.07
2019-04-20T02:57:07.409Z,27.43
2019-04-20T03:01:57.984Z,29.30
2019-04-20T03:04:20.528Z,28.93
2019-04-20T03:06:58.331Z,30.37
2019-04-20T03:09:36.903Z,29.57
2019-04-20T03:12:07.980Z,29.97
2019-04-20T03:14:35.154Z,27.60
2019-04-20T03:17:18.267Z,28.93
2019-04-20T03:19:40.849Z,27.63
2019-04-20T03:22:23.580Z,26.67
2019-04-20T03:24:56.572Z,26.57
2019-04-20T03:27:28.143Z,24.67
2019-04-20T03:30:04.190Z,26.17
2019-04-20T03:35:17.386Z,23.80
2019-04-20T03:37:44.224Z,23.00
2019-04-20T03:40:10.305Z,23.43
2019-04-20T03:42:26.609Z,25.53
2019-04-20T03:45:04.153Z,26.10
2019-04-20T03:47:38.465Z,22.07
2019-04-20T03:50:24.953Z,21.77
2019-04-20T03:53:05.815Z,21.53
2019-04-20T03:55:25.937Z,21.50
2019-04-20T03:58:10.781Z,24.63
2019-04-20T04:00:36.160Z,27.20
2019-04-20T04:03:29.403Z,25.53
2019-04-20T04:05:51.886Z,25.37
2019-04-20T04:08:17.110Z,24.40
2019-04-20T04:11:06.682Z,24.03
2019-04-20T04:13:18.750Z,23.50
2019-04-20T04:15:55.592Z,23.07
2019-04-20T04:18:29.879Z,22.67
2019-04-20T04:21:01.988Z,25.03
2019-04-20T04:23:44.826Z,24.50
2019-04-20T04:26:20.307Z,23.47
2019-04-20T04:28:48.966Z,25.13
2019-04-20T04:31:27.630Z,25.90
2019-04-20T04:34:12.245Z,24.13
2019-04-20T04:36:30.114Z,27.17
2019-04-20T04:39:08.851Z,24.57
2019-04-20T04:41:37.950Z,22.70
2019-04-20T04:44:09.914Z,22.97
2019-04-20T04:46:24.876Z,23.63
2019-04-20T04:49:06.886Z,25.67
2019-04-20T04:51:41.744Z,29.57
2019-04-20T04:54:12.848Z,26.53
2019-04-20T04:56:35.558Z,26.10
2019-04-20T04:59:06.526Z,25.33
2019-04-20T05:01:39.380Z,26.23
2019-04-20T05:04:29.013Z,23.07
2019-04-20T05:06:59.478Z,22.00
2019-04-20T05:09:17.139Z,21.60
2019-04-20T05:11:56.911Z,21.30
2019-04-20T05:14:26.219Z,22.83
2019-04-20T05:17:07.379Z,23.30
2019-04-20T05:19:49.827Z,21.07
2019-04-20T05:22:22.938Z,20.30
2019-04-20T05:25:01.026Z,20.03
2019-04-20T05:27:36.351Z,18.20
2019-04-20T05:29:44.999Z,16.00
2019-04-20T05:32:31.428Z,13.87
2019-04-20T05:35:15.093Z,13.43
2019-04-20T05:37:48.898Z,15.10
2019-04-20T05:40:16.535Z,14.10
2019-04-20T05:42:52.359Z,14.07
2019-04-20T05:45:21.819Z,13.15
2019-04-20T05:47:53.611Z,13.70
2019-04-20T05:50:31.674Z,13.83
2019-04-20T05:53:07.440Z,14.07
2019-04-20T05:55:48.874Z,12.80
2019-04-20T05:58:26.187Z,11.97
2019-04-20T06:01:00.224Z,11.65
2019-04-20T06:03:26.115Z,12.03
2019-04-20T06:06:03.830Z,11.00
2019-04-20T06:08:47.515Z,10.90
2019-04-20T06:11:09.339Z,10.10
2019-04-20T06:13:43.126Z,10.53
2019-04-20T06:16:31.033Z,9.90
2019-04-20T06:19:15.571Z,9.35
2019-04-20T06:21:37.877Z,8.93
2019-04-20T06:24:20.769Z,8.98
2019-04-20T06:26:59.651Z,10.43
2019-04-20T06:29:18.468Z,8.18
2019-04-20T06:31:59.127Z,8.93
2019-04-20T06:34:41.621Z,8.38
2019-04-20T06:37:01.015Z,7.85
2019-04-20T06:39:44.748Z,7.50
2019-04-20T06:44:45.766Z,7.83
2019-04-20T06:47:29.422Z,7.65
2019-04-20T06:50:11.139Z,8.05
2019-04-20T07:00:18.047Z,7.05
2019-04-20T07:02:50.065Z,7.45
2019-04-20T07:08:00.423Z,10.23
2019-04-20T07:10:31.333Z,13.15
2019-04-20T07:12:56.780Z,13.35
2019-04-20T07:15:40.198Z,12.07
2019-04-20T07:18:16.699Z,11.33
2019-04-20T07:21:12.789Z,10.80
2019-04-20T07:23:51.676Z,9.48
2019-04-20T07:26:15.342Z,9.73
2019-04-20T07:28:50.533Z,14.98
2019-04-20T07:31:15.843Z,13.68
2019-04-20T07:33:48.001Z,13.88
2019-04-20T07:36:26.589Z,10.70
2019-04-20T07:38:54.253Z,9.55
2019-04-20T07:41:33.032Z,8.58
2019-04-20T07:44:04.059Z,7.70
2019-04-20T07:46:47.158Z,6.78
2019-04-20T07:49:08.843Z,7.60
2019-04-20T07:51:28.228Z,7.28
2019-04-20T07:54:23.284Z,7.10
2019-04-20T07:56:50.464Z,7.25
2019-04-20T07:59:14.041Z,7.80
2019-04-20T08:02:08.139Z,7.12
2019-04-20T08:04:35.300Z,7.70
2019-04-20T08:06:53.955Z,7.40
2019-04-20T08:09:31.850Z,7.40
2019-04-20T08:12:21.794Z,6.92
2019-04-20T08:14:57.045Z,6.50
2019-04-20T08:17:46.762Z,6.62
2019-04-20T08:19:50.931Z,6.33
2019-04-20T08:22:27.056Z,6.08
2019-04-20T08:25:00.596Z,6.15
2019-04-20T08:27:19.827Z,3.10
2019-04-20T08:30:09.070Z,3.30
2019-04-20T08:32:51.508Z,3.52
2019-04-20T08:35:31.938Z,3.58
2019-04-20T08:38:26.764Z,3.30
2019-04-20T08:40:40.280Z,3.08
2019-04-20T08:43:20.083Z,2.70
2019-04-20T08:45:49.454Z,3.27
2019-04-20T08:48:17.425Z,3.15
2019-04-20T08:50:44.993Z,2.62
2019-04-20T08:55:44.968Z,2.30
2019-04-20T08:58:04.877Z,2.60
2019-04-20T09:00:45.698Z,2.70
2019-04-20T09:03:17.326Z,2.83
2019-04-20T09:05:52.257Z,2.72
2019-04-20T09:08:21.239Z,2.80
2019-04-20T09:11:05.898Z,2.95
2019-04-20T09:13:29.953Z,2.80
2019-04-20T09:15:53.528Z,3.00
2019-04-20T09:18:49.400Z,2.50
2019-04-20T09:21:24.342Z,2.27
2019-04-20T09:24:13.217Z,2.80
2019-04-20T09:26:39.952Z,2.80
2019-04-20T09:29:13.714Z,2.75
2019-04-20T09:31:40.844Z,2.92
2019-04-20T09:34:17.321Z,2.90
2019-04-20T09:36:51.395Z,2.50
2019-04-20T09:39:21.349Z,3.12
2019-04-20T09:42:00.799Z,2.95
2019-04-20T09:44:30.189Z,3.50
2019-04-20T09:46:59.490Z,3.45
2019-04-20T09:49:42.575Z,3.12
2019-04-20T09:52:17.035Z,3.50
2019-04-20T09:54:52.558Z,3.62
2019-04-20T09:57:25.554Z,3.08
2019-04-20T09:59:58.629Z,3.05
2019-04-20T10:02:18.852Z,4.08
2019-04-20T10:04:47.327Z,3.40
2019-04-20T10:07:22.246Z,2.55
2019-04-20T10:09:52.069Z,3.10
2019-04-20T10:12:31.283Z,2.40
2019-04-20T10:15:12.407Z,3.15
2019-04-20T10:17:38.621Z,4.33
2019-04-20T10:20:19.442Z,3.02
2019-04-20T10:22:44.744Z,2.27
2019-04-20T10:25:15.810Z,3.62
2019-04-20T10:27:47.483Z,2.85
2019-04-20T10:30:18.681Z,2.90
2019-04-20T10:32:53.460Z,3.33
2019-04-20T10:35:23.843Z,4.28
2019-04-20T10:38:15.645Z,2.80
2019-04-20T10:40:59.785Z,5.33
2019-04-20T10:43:19.814Z,5.78
2019-04-20T10:45:50.991Z,3.10
2019-04-20T10:48:23.405Z,3.15
2019-04-20T10:50:54.861Z,3.00
2019-04-20T10:53:26.057Z,2.30
2019-04-20T10:55:57.748Z,3.75
2019-04-20T10:58:29.575Z,3.55
2019-04-20T11:01:01.780Z,5.17
2019-04-20T11:03:32.821Z,2.47
2019-04-20T11:06:04.834Z,3.33
2019-04-20T11:08:35.917Z,2.60
2019-04-20T11:11:13.018Z,3.75
2019-04-20T11:13:39.508Z,4.35
2019-04-20T11:16:10.772Z,4.72
2019-04-20T11:18:43.137Z,4.37
2019-04-20T11:21:15.426Z,4.33
2019-04-20T11:23:46.746Z,2.95
2019-04-20T11:26:18.140Z,3.83
2019-04-20T11:28:50.374Z,3.85
2019-04-20T11:31:22.017Z,3.35
2019-04-20T11:33:54.196Z,3.85
2019-04-20T11:36:27.433Z,3.95
2019-04-20T11:38:58.751Z,3.33
2019-04-20T11:41:32.690Z,2.90
2019-04-20T11:44:03.316Z,3.35
2019-04-20T11:46:34.584Z,2.87
2019-04-20T11:49:05.781Z,3.20
2019-04-20T11:51:37.353Z,3.25
2019-04-20T11:54:08.433Z,2.75
2019-04-20T11:56:43.493Z,2.33
2019-04-20T11:59:12.650Z,3.75
2019-04-20T12:02:03.675Z,2.25
2019-04-20T12:04:45.482Z,3.00
2019-04-20T12:07:11.145Z,3.52
2019-04-20T12:09:42.096Z,3.02
2019-04-20T12:12:24.627Z,3.08
2019-04-20T12:14:46.405Z,3.12
2019-04-20T12:17:17.685Z,2.10
2019-04-20T12:19:50.075Z,3.10
2019-04-20T12:22:22.201Z,2.17
2019-04-20T12:24:54.116Z,3.42
2019-04-20T12:27:25.180Z,3.12
2019-04-20T12:29:57.468Z,3.95
2019-04-20T12:32:36.433Z,3.70
2019-04-20T12:35:02.604Z,2.60
2019-04-20T12:37:34.661Z,2.60
2019-04-20T12:40:10.606Z,2.98
2019-04-20T12:42:43.164Z,2.92
2019-04-20T12:45:15.746Z,3.25
2019-04-20T12:47:48.637Z,2.90
2019-04-20T12:50:21.379Z,3.20
2019-04-20T12:52:52.604Z,3.42
2019-04-20T12:55:23.447Z,3.42
2019-04-20T12:57:54.529Z,3.05
2019-04-20T13:00:30.900Z,3.17
2019-04-20T13:03:03.105Z,3.40
2019-04-20T13:05:34.276Z,2.42
2019-04-20T13:08:07.447Z,3.50
2019-04-20T13:10:40.202Z,3.17
2019-04-20T13:13:28.184Z,2.00
2019-04-20T13:16:08.195Z,4.83
2019-04-20T13:18:41.250Z,3.77
2019-04-20T13:21:13.272Z,4.17
2019-04-20T13:23:45.401Z,3.40
2019-04-20T13:26:17.483Z,2.87
2019-04-20T13:28:48.836Z,7.33
2019-04-20T13:31:19.939Z,4.28
2019-04-20T13:33:51.620Z,4.87
2019-04-20T13:36:24.049Z,4.12
2019-04-20T13:38:56.406Z,4.00
2019-04-20T13:41:27.737Z,5.87
2019-04-20T13:44:01.291Z,6.30
2019-04-20T13:46:31.395Z,4.03
2019-04-20T13:49:02.983Z,3.17
2019-04-20T13:51:34.984Z,5.15
2019-04-20T13:54:13.902Z,6.65
2019-04-20T13:56:41.695Z,4.85
2019-04-20T13:59:23.769Z,4.37
2019-04-20T14:01:57.032Z,3.92
2019-04-20T14:04:30.700Z,5.30
2019-04-20T14:07:01.929Z,5.12
2019-04-20T14:09:35.274Z,4.40
2019-04-20T14:12:17.343Z,5.22
2019-04-20T14:14:39.265Z,5.42
2019-04-20T14:17:10.774Z,4.83
2019-04-20T14:19:42.823Z,5.33
2019-04-20T14:22:16.292Z,6.17
2019-04-20T14:24:48.908Z,4.95
2019-04-20T14:27:21.267Z,4.87
2019-04-20T14:29:52.965Z,4.90
2019-04-20T14:32:24.994Z,4.58
2019-04-20T14:34:56.813Z,4.72
2019-04-20T14:37:28.965Z,5.00
2019-04-20T14:40:00.605Z,5.10
2019-04-20T14:42:39.450Z,9.50
2019-04-20T14:45:09.271Z,5.30
2019-04-20T14:47:41.475Z,3.70
2019-04-20T14:50:13.726Z,5.90
2019-04-20T14:52:44.681Z,5.62
2019-04-20T14:55:17.729Z,4.03
2019-04-20T14:57:49.784Z,4.15
2019-04-20T15:00:49.957Z,4.62
2019-04-20T15:03:36.724Z,4.20
2019-04-20T15:06:05.823Z,5.92
2019-04-20T15:08:36.924Z,4.60
2019-04-20T15:11:09.262Z,5.67
2019-04-20T15:13:42.603Z,5.30
2019-04-20T15:16:14.904Z,5.28
2019-04-20T15:18:55.233Z,4.92
2019-04-20T15:21:31.631Z,9.48
2019-04-20T15:24:03.702Z,5.92
2019-04-20T15:26:36.183Z,8.23
2019-04-20T15:29:08.416Z,5.92
2019-04-20T15:31:39.499Z,6.80
2019-04-20T15:34:10.867Z,7.53
2019-04-20T15:36:44.309Z,6.62
2019-04-20T15:39:16.929Z,3.70
2019-04-20T15:41:49.568Z,6.22
2019-04-20T15:44:21.578Z,9.05
2019-04-20T15:46:53.512Z,5.90
2019-04-20T15:49:24.420Z,11.05
2019-04-20T15:51:55.723Z,13.30
2019-04-20T15:54:27.523Z,8.03
2019-04-20T15:57:02.533Z,10.90
2019-04-20T15:59:32.604Z,5.72
2019-04-20T16:02:09.400Z,5.55
2019-04-20T16:04:52.514Z,5.65
2019-04-20T16:07:25.421Z,9.43
2019-04-20T16:09:56.869Z,6.80
2019-04-20T16:12:29.103Z,5.47
2019-04-20T16:15:00.113Z,6.10
2019-04-20T16:17:38.301Z,5.62
2019-04-20T16:20:09.107Z,5.53
2019-04-20T16:22:36.683Z,5.40
2019-04-20T16:25:16.991Z,5.50
2019-04-20T16:27:49.774Z,5.67
2019-04-20T16:30:20.809Z,4.97
2019-04-20T16:33:03.002Z,5.60
2019-04-20T16:35:40.546Z,5.70
2019-04-20T16:38:16.266Z,5.22
2019-04-20T16:40:54.618Z,5.58
2019-04-20T16:43:43.006Z,7.60
2019-04-20T16:46:13.156Z,8.48
2019-04-20T16:48:44.409Z,8.20
2019-04-20T16:51:16.628Z,7.95
2019-04-20T16:53:48.003Z,7.17
2019-04-20T16:56:21.051Z,6.70
2019-04-20T16:58:57.285Z,6.60
2019-04-20T17:01:25.624Z,6.12
2019-04-20T17:04:03.913Z,5.70
2019-04-20T17:06:30.019Z,7.90
2019-04-20T17:09:01.231Z,7.80
2019-04-20T17:11:32.282Z,8.05
2019-04-20T17:14:04.080Z,24.70
2019-04-20T17:16:35.518Z,10.05
2019-04-20T17:19:07.891Z,10.03
2019-04-20T17:21:40.156Z,10.23
2019-04-20T17:24:11.387Z,12.75
2019-04-20T17:26:52.964Z,17.05
2019-04-20T17:29:28.175Z,14.58
2019-04-20T17:32:08.056Z,12.45
2019-04-20T17:34:57.175Z,12.63
2019-04-20T17:37:12.892Z,13.40
2019-04-20T17:40:06.735Z,16.95
2019-04-20T17:42:32.951Z,18.48
2019-04-20T17:45:02.219Z,20.60
2019-04-20T17:47:44.806Z,25.52
2019-04-20T17:50:17.257Z,27.02
2019-04-20T17:52:50.066Z,25.50
2019-04-20T17:55:24.579Z,21.17
2019-04-20T17:57:47.319Z,18.48
2019-04-20T18:00:22.505Z,12.88
2019-04-20T18:03:12.023Z,13.55
2019-04-20T18:05:51.658Z,15.35
2019-04-20T18:08:26.342Z,14.18
2019-04-20T18:10:53.026Z,17.27
2019-04-20T18:13:19.890Z,20.55
2019-04-20T18:16:05.093Z,18.15
2019-04-20T18:18:41.434Z,25.55
2019-04-20T18:21:06.381Z,28.07
2019-04-20T18:23:44.508Z,25.30
2019-04-20T18:26:35.856Z,21.40
2019-04-20T18:29:23.942Z,20.55
2019-04-20T18:31:31.399Z,20.52
2019-04-20T18:34:20.848Z,17.53
2019-04-20T18:37:02.117Z,20.02
2019-04-20T18:39:42.070Z,22.98
2019-04-20T18:42:16.509Z,23.40
2019-04-20T18:45:00.963Z,25.70
2019-04-20T18:47:34.733Z,31.93
2019-04-20T18:49:57.286Z,26.05
2019-04-20T18:52:21.999Z,22.47
2019-04-20T18:54:55.374Z,16.97
2019-04-20T18:57:29.231Z,16.25
2019-04-20T19:00:02.375Z,15.47
2019-04-20T19:02:40.018Z,15.83
2019-04-20T19:05:08.687Z,16.40
2019-04-20T19:07:48.023Z,15.87
2019-04-20T19:10:18.658Z,17.70
2019-04-20T19:12:54.276Z,19.83
2019-04-20T19:15:45.021Z,21.10
2019-04-20T19:18:12.692Z,20.83
2019-04-20T19:20:35.081Z,22.00
2019-04-20T19:23:08.278Z,20.90
2019-04-20T19:25:44.197Z,18.30
2019-04-20T19:28:21.651Z,17.03
2019-04-20T19:31:01.794Z,14.97
2019-04-20T19:33:33.176Z,14.40
2019-04-20T19:36:10.587Z,14.37
2019-04-20T19:38:40.849Z,17.00
2019-04-20T19:41:15.999Z,22.30
2019-04-20T19:43:45.814Z,23.43
2019-04-20T19:46:39.661Z,26.40
2019-04-20T19:48:53.948Z,26.83
2019-04-20T19:51:35.759Z,25.53
2019-04-20T19:54:13.150Z,26.77
2019-04-20T19:56:41.466Z,27.10
2019-04-20T19:59:13.678Z,29.30
2019-04-20T20:01:35.637Z,28.77
2019-04-20T20:04:10.037Z,30.10
2019-04-20T20:06:46.014Z,30.07
2019-04-20T20:09:16.103Z,30.53
2019-04-20T20:11:46.751Z,27.77
2019-04-20T20:14:28.857Z,25.53
2019-04-20T20:17:12.941Z,22.40
2019-04-20T20:19:37.149Z,21.97
2019-04-20T20:22:08.981Z,22.10
2019-04-20T20:24:29.515Z,20.53
2019-04-20T20:27:06.158Z,20.87
2019-04-20T20:29:38.362Z,20.60
2019-04-20T20:32:18.015Z,21.03
2019-04-20T20:34:43.467Z,20.00
2019-04-20T20:37:23.224Z,20.83
2019-04-20T20:39:53.798Z,21.37
2019-04-20T20:42:30.902Z,21.23
2019-04-20T20:44:55.139Z,23.43
2019-04-20T20:47:50.601Z,23.00
2019-04-20T20:50:19.946Z,22.43
2019-04-20T20:52:45.111Z,22.87
2019-04-20T20:55:20.940Z,22.67
2019-04-20T20:57:52.035Z,24.60
2019-04-20T21:00:32.038Z,24.10
2019-04-20T21:02:58.491Z,25.17
2019-04-20T21:05:25.325Z,26.47
2019-04-20T21:07:57.417Z,28.00
2019-04-20T21:10:40.199Z,30.43
2019-04-20T21:13:10.293Z,30.53
2019-04-20T21:15:40.573Z,30.50
2019-04-20T21:18:35.129Z,32.20
2019-04-20T21:21:02.138Z,32.23
2019-04-20T21:23:32.651Z,31.50
2019-04-20T21:26:16.910Z,32.33
2019-04-20T21:28:43.781Z,31.63
2019-04-20T21:31:21.988Z,31.50
2019-04-20T21:33:48.948Z,30.20
2019-04-20T21:36:25.905Z,27.27
2019-04-20T21:39:15.255Z,27.97
2019-04-20T21:41:51.218Z,31.10
2019-04-20T21:44:24.286Z,31.87
2019-04-20T21:46:54.624Z,32.60
2019-04-20T21:49:43.942Z,35.43
2019-04-20T21:52:03.664Z,33.03
2019-04-20T21:54:34.051Z,33.03
2019-04-20T21:57:09.479Z,33.43
2019-04-20T21:59:43.202Z,35.67
2019-04-20T22:02:18.606Z,39.87
2019-04-20T22:04:43.223Z,40.67
2019-04-20T22:07:16.487Z,40.77
2019-04-20T22:09:51.605Z,40.93
2019-04-20T22:12:20.408Z,40.93
2019-04-20T22:14:58.955Z,37.77
2019-04-20T22:17:28.894Z,38.77
2019-04-20T22:20:10.279Z,33.93
2019-04-20T22:22:49.448Z,34.47
2019-04-20T22:25:26.305Z,34.63
2019-04-20T22:27:37.620Z,32.57
2019-04-20T22:30:10.335Z,31.63
2019-04-20T22:32:44.146Z,30.40
2019-04-20T22:35:16.211Z,29.40
2019-04-20T22:37:58.869Z,28.77
2019-04-20T22:40:28.854Z,26.60
2019-04-20T22:43:00.089Z,25.90
2019-04-20T22:45:33.963Z,27.93
2019-04-20T22:48:07.270Z,25.93
2019-04-20T22:50:52.895Z,25.23
2019-04-20T22:53:22.705Z,24.03
2019-04-20T22:56:04.600Z,23.70
2019-04-20T22:58:47.926Z,26.13
2019-04-20T23:01:14.373Z,30.37
2019-04-20T23:03:36.744Z,32.40
2019-04-20T23:06:09.034Z,31.07
2019-04-20T23:08:40.527Z,31.90
2019-04-20T23:11:18.080Z,33.17
2019-04-20T23:13:46.988Z,34.80
2019-04-20T23:16:17.415Z,37.50
2019-04-20T23:18:49.725Z,37.53
2019-04-20T23:21:21.716Z,37.73
2019-04-20T23:24:01.560Z,39.00
2019-04-20T23:26:35.903Z,38.20
2019-04-20T23:29:02.427Z,39.17
2019-04-20T23:31:32.407Z,39.63
2019-04-20T23:34:12.378Z,38.60
2019-04-20T23:36:40.339Z,38.30
2019-04-20T23:39:10.694Z,35.30
2019-04-20T23:41:49.894Z,36.40
2019-04-20T23:44:23.042Z,32.80
2019-04-20T23:47:04.560Z,32.07
2019-04-20T23:49:38.123Z,33.70
2019-04-20T23:52:26.076Z,33.17
2019-04-20T23:54:37.569Z,34.73
2019-04-20T23:57:09.023Z,32.80
2019-04-20T23:59:43.169Z,33.23
